sensor_id;sensor_type;location;lat;lon;timestamp;P1;durP1;ratioP1;P2;durP2;ratioP2
9729;SDS011;4904;49.152;11.004;2022-08-30T00:01:02;8.23;;;7.53;;
9729;SDS011;4904;49.152;11.004;2022-08-30T00:03:29;7.60;;;6.82;;
9729;SDS011;4904;49.152;11.004;2022-08-30T00:05:58;7.82;;;7.03;;
9729;SDS011;4904;49.152;11.004;2022-08-30T00:08:27;8.90;;;7.55;;
9729;SDS011;4904;49.152;11.004;2022-08-30T00:10:54;11.10;;;7.72;;
9729;SDS011;4904;49.152;11.004;2022-08-30T00:13:21;9.90;;;7.93;;
9729;SDS011;4904;49.152;11.004;2022-08-30T00:15:48;8.85;;;7.35;;
9729;SDS011;4904;49.152;11.004;2022-08-30T00:18:16;8.75;;;7.35;;
9729;SDS011;4904;49.152;11.004;2022-08-30T00:20:44;8.63;;;7.40;;
9729;SDS011;4904;49.152;11.004;2022-08-30T00:23:13;9.93;;;7.70;;
9729;SDS011;4904;49.152;11.004;2022-08-30T00:25:42;8.02;;;7.20;;
9729;SDS011;4904;49.152;11.004;2022-08-30T00:28:10;11.73;;;8.00;;
9729;SDS011;4904;49.152;11.004;2022-08-30T00:30:37;8.50;;;7.75;;
9729;SDS011;4904;49.152;11.004;2022-08-30T00:33:05;7.78;;;7.05;;
9729;SDS011;4904;49.152;11.004;2022-08-30T00:35:34;7.25;;;6.65;;
9729;SDS011;4904;49.152;11.004;2022-08-30T00:38:02;7.40;;;6.75;;
9729;SDS011;4904;49.152;11.004;2022-08-30T00:40:29;7.90;;;7.20;;
9729;SDS011;4904;49.152;11.004;2022-08-30T00:42:58;9.07;;;7.78;;
9729;SDS011;4904;49.152;11.004;2022-08-30T00:45:27;8.60;;;7.85;;
9729;SDS011;4904;49.152;11.004;2022-08-30T00:47:55;8.65;;;7.85;;
9729;SDS011;4904;49.152;11.004;2022-08-30T00:50:24;8.32;;;7.53;;
9729;SDS011;4904;49.152;11.004;2022-08-30T00:52:55;9.23;;;7.72;;
9729;SDS011;4904;49.152;11.004;2022-08-30T00:55:25;8.88;;;8.13;;
9729;SDS011;4904;49.152;11.004;2022-08-30T00:57:54;9.80;;;7.78;;
9729;SDS011;4904;49.152;11.004;2022-08-30T01:00:25;9.05;;;8.15;;
9729;SDS011;4904;49.152;11.004;2022-08-30T01:02:52;9.98;;;8.13;;
9729;SDS011;4904;49.152;11.004;2022-08-30T01:05:20;9.75;;;7.70;;
9729;SDS011;4904;49.152;11.004;2022-08-30T01:07:48;10.38;;;7.88;;
9729;SDS011;4904;49.152;11.004;2022-08-30T01:10:15;10.52;;;7.30;;
9729;SDS011;4904;49.152;11.004;2022-08-30T01:12:43;8.88;;;7.60;;
9729;SDS011;4904;49.152;11.004;2022-08-30T01:15:11;8.45;;;7.60;;
9729;SDS011;4904;49.152;11.004;2022-08-30T01:17:41;10.82;;;8.27;;
9729;SDS011;4904;49.152;11.004;2022-08-30T01:20:10;9.15;;;7.78;;
9729;SDS011;4904;49.152;11.004;2022-08-30T01:22:39;9.27;;;8.38;;
9729;SDS011;4904;49.152;11.004;2022-08-30T01:25:11;9.25;;;7.80;;
9729;SDS011;4904;49.152;11.004;2022-08-30T01:27:40;10.25;;;7.95;;
9729;SDS011;4904;49.152;11.004;2022-08-30T01:30:10;8.52;;;7.60;;
9729;SDS011;4904;49.152;11.004;2022-08-30T01:32:38;8.35;;;7.53;;
9729;SDS011;4904;49.152;11.004;2022-08-30T01:35:08;8.60;;;6.97;;
9729;SDS011;4904;49.152;11.004;2022-08-30T01:37:36;7.80;;;7.10;;
9729;SDS011;4904;49.152;11.004;2022-08-30T01:40:04;7.88;;;7.00;;
9729;SDS011;4904;49.152;11.004;2022-08-30T01:42:34;9.65;;;7.32;;
9729;SDS011;4904;49.152;11.004;2022-08-30T01:45:01;7.85;;;7.18;;
9729;SDS011;4904;49.152;11.004;2022-08-30T01:47:28;8.20;;;7.35;;
9729;SDS011;4904;49.152;11.004;2022-08-30T01:49:55;8.55;;;7.32;;
9729;SDS011;4904;49.152;11.004;2022-08-30T01:52:22;8.40;;;7.60;;
9729;SDS011;4904;49.152;11.004;2022-08-30T01:54:50;9.48;;;7.50;;
9729;SDS011;4904;49.152;11.004;2022-08-30T01:57:18;8.57;;;7.78;;
9729;SDS011;4904;49.152;11.004;2022-08-30T01:59:47;8.13;;;7.32;;
9729;SDS011;4904;49.152;11.004;2022-08-30T02:02:15;10.07;;;7.60;;
9729;SDS011;4904;49.152;11.004;2022-08-30T02:04:44;9.77;;;7.57;;
9729;SDS011;4904;49.152;11.004;2022-08-30T02:07:12;8.75;;;7.53;;
9729;SDS011;4904;49.152;11.004;2022-08-30T02:09:38;11.18;;;7.43;;
9729;SDS011;4904;49.152;11.004;2022-08-30T02:12:06;7.97;;;6.70;;
9729;SDS011;4904;49.152;11.004;2022-08-30T02:14:33;8.48;;;7.68;;
9729;SDS011;4904;49.152;11.004;2022-08-30T02:17:02;10.13;;;7.10;;
9729;SDS011;4904;49.152;11.004;2022-08-30T02:19:30;9.10;;;7.47;;
9729;SDS011;4904;49.152;11.004;2022-08-30T02:21:57;7.38;;;6.68;;
9729;SDS011;4904;49.152;11.004;2022-08-30T02:24:24;8.68;;;7.50;;
9729;SDS011;4904;49.152;11.004;2022-08-30T02:26:52;8.52;;;7.65;;
9729;SDS011;4904;49.152;11.004;2022-08-30T02:29:19;8.38;;;7.28;;
9729;SDS011;4904;49.152;11.004;2022-08-30T02:31:48;8.23;;;7.43;;
9729;SDS011;4904;49.152;11.004;2022-08-30T02:34:16;8.75;;;7.90;;
9729;SDS011;4904;49.152;11.004;2022-08-30T02:36:44;8.10;;;7.40;;
9729;SDS011;4904;49.152;11.004;2022-08-30T02:39:11;8.07;;;7.28;;
9729;SDS011;4904;49.152;11.004;2022-08-30T02:41:40;7.95;;;7.20;;
9729;SDS011;4904;49.152;11.004;2022-08-30T02:44:07;8.65;;;7.75;;
9729;SDS011;4904;49.152;11.004;2022-08-30T02:46:34;10.25;;;8.35;;
9729;SDS011;4904;49.152;11.004;2022-08-30T02:49:02;9.27;;;8.25;;
9729;SDS011;4904;49.152;11.004;2022-08-30T02:51:31;9.55;;;7.88;;
9729;SDS011;4904;49.152;11.004;2022-08-30T02:53:58;10.38;;;7.70;;
9729;SDS011;4904;49.152;11.004;2022-08-30T02:56:25;9.55;;;7.80;;
9729;SDS011;4904;49.152;11.004;2022-08-30T02:58:52;9.65;;;7.90;;
9729;SDS011;4904;49.152;11.004;2022-08-30T03:01:19;10.18;;;7.43;;
9729;SDS011;4904;49.152;11.004;2022-08-30T03:03:46;8.20;;;7.40;;
9729;SDS011;4904;49.152;11.004;2022-08-30T03:06:14;9.95;;;7.13;;
9729;SDS011;4904;49.152;11.004;2022-08-30T03:08:43;7.95;;;7.15;;
9729;SDS011;4904;49.152;11.004;2022-08-30T03:11:10;9.77;;;7.53;;
9729;SDS011;4904;49.152;11.004;2022-08-30T03:13:38;8.68;;;7.82;;
9729;SDS011;4904;49.152;11.004;2022-08-30T03:16:05;8.57;;;7.50;;
9729;SDS011;4904;49.152;11.004;2022-08-30T03:18:32;8.98;;;7.90;;
9729;SDS011;4904;49.152;11.004;2022-08-30T03:20:59;9.02;;;7.30;;
9729;SDS011;4904;49.152;11.004;2022-08-30T03:23:26;8.05;;;7.35;;
9729;SDS011;4904;49.152;11.004;2022-08-30T03:25:54;8.05;;;7.35;;
9729;SDS011;4904;49.152;11.004;2022-08-30T03:28:21;8.95;;;7.13;;
9729;SDS011;4904;49.152;11.004;2022-08-30T03:30:48;8.48;;;7.07;;
9729;SDS011;4904;49.152;11.004;2022-08-30T03:33:15;8.90;;;8.10;;
9729;SDS011;4904;49.152;11.004;2022-08-30T03:35:42;9.48;;;8.18;;
9729;SDS011;4904;49.152;11.004;2022-08-30T03:38:09;15.32;;;8.75;;
9729;SDS011;4904;49.152;11.004;2022-08-30T03:40:36;8.85;;;8.05;;
9729;SDS011;4904;49.152;11.004;2022-08-30T03:43:05;8.73;;;7.85;;
9729;SDS011;4904;49.152;11.004;2022-08-30T03:45:32;8.45;;;7.57;;
9729;SDS011;4904;49.152;11.004;2022-08-30T03:47:59;8.52;;;7.57;;
9729;SDS011;4904;49.152;11.004;2022-08-30T03:50:27;9.52;;;8.10;;
9729;SDS011;4904;49.152;11.004;2022-08-30T03:52:54;8.70;;;7.78;;
9729;SDS011;4904;49.152;11.004;2022-08-30T03:55:22;8.75;;;7.50;;
9729;SDS011;4904;49.152;11.004;2022-08-30T03:57:49;8.15;;;7.45;;
9729;SDS011;4904;49.152;11.004;2022-08-30T04:00:17;7.82;;;6.78;;
9729;SDS011;4904;49.152;11.004;2022-08-30T04:02:45;8.23;;;7.40;;
9729;SDS011;4904;49.152;11.004;2022-08-30T04:05:12;9.93;;;6.53;;
9729;SDS011;4904;49.152;11.004;2022-08-30T04:07:39;8.50;;;7.18;;
9729;SDS011;4904;49.152;11.004;2022-08-30T04:10:06;8.88;;;7.35;;
9729;SDS011;4904;49.152;11.004;2022-08-30T04:12:34;10.43;;;7.32;;
9729;SDS011;4904;49.152;11.004;2022-08-30T04:15:02;8.05;;;7.35;;
9729;SDS011;4904;49.152;11.004;2022-08-30T04:17:30;7.82;;;7.13;;
9729;SDS011;4904;49.152;11.004;2022-08-30T04:19:57;7.85;;;7.15;;
9729;SDS011;4904;49.152;11.004;2022-08-30T04:22:24;9.55;;;7.38;;
9729;SDS011;4904;49.152;11.004;2022-08-30T04:24:51;9.20;;;8.30;;
9729;SDS011;4904;49.152;11.004;2022-08-30T04:27:18;10.35;;;6.93;;
9729;SDS011;4904;49.152;11.004;2022-08-30T04:29:45;8.07;;;7.28;;
9729;SDS011;4904;49.152;11.004;2022-08-30T04:32:12;9.07;;;7.93;;
9729;SDS011;4904;49.152;11.004;2022-08-30T04:34:41;10.10;;;8.68;;
9729;SDS011;4904;49.152;11.004;2022-08-30T04:37:08;9.90;;;8.32;;
9729;SDS011;4904;49.152;11.004;2022-08-30T04:39:35;9.68;;;7.95;;
9729;SDS011;4904;49.152;11.004;2022-08-30T04:42:02;13.38;;;8.48;;
9729;SDS011;4904;49.152;11.004;2022-08-30T04:44:30;9.57;;;8.40;;
9729;SDS011;4904;49.152;11.004;2022-08-30T04:46:57;9.07;;;7.47;;
9729;SDS011;4904;49.152;11.004;2022-08-30T04:49:24;14.52;;;8.32;;
9729;SDS011;4904;49.152;11.004;2022-08-30T04:51:52;8.77;;;7.95;;
9729;SDS011;4904;49.152;11.004;2022-08-30T04:54:19;9.05;;;8.15;;
9729;SDS011;4904;49.152;11.004;2022-08-30T04:56:46;9.55;;;7.63;;
9729;SDS011;4904;49.152;11.004;2022-08-30T04:59:13;8.57;;;7.88;;
9729;SDS011;4904;49.152;11.004;2022-08-30T05:01:40;8.32;;;7.43;;
9729;SDS011;4904;49.152;11.004;2022-08-30T05:04:07;10.35;;;8.00;;
9729;SDS011;4904;49.152;11.004;2022-08-30T05:06:34;9.65;;;7.70;;
9729;SDS011;4904;49.152;11.004;2022-08-30T05:09:02;8.38;;;7.57;;
9729;SDS011;4904;49.152;11.004;2022-08-30T05:11:29;10.82;;;8.00;;
9729;SDS011;4904;49.152;11.004;2022-08-30T05:13:56;10.70;;;8.63;;
9729;SDS011;4904;49.152;11.004;2022-08-30T05:16:24;9.25;;;8.35;;
9729;SDS011;4904;49.152;11.004;2022-08-30T05:18:51;9.07;;;8.13;;
9729;SDS011;4904;49.152;11.004;2022-08-30T05:21:19;8.20;;;7.40;;
9729;SDS011;4904;49.152;11.004;2022-08-30T05:23:47;11.43;;;8.18;;
9729;SDS011;4904;49.152;11.004;2022-08-30T05:26:17;7.80;;;7.20;;
9729;SDS011;4904;49.152;11.004;2022-08-30T05:28:46;10.05;;;7.85;;
9729;SDS011;4904;49.152;11.004;2022-08-30T05:31:14;10.98;;;8.82;;
9729;SDS011;4904;49.152;11.004;2022-08-30T05:33:43;9.32;;;8.30;;
9729;SDS011;4904;49.152;11.004;2022-08-30T05:36:10;8.77;;;7.82;;
9729;SDS011;4904;49.152;11.004;2022-08-30T05:38:39;9.20;;;8.30;;
9729;SDS011;4904;49.152;11.004;2022-08-30T05:41:06;9.05;;;7.97;;
9729;SDS011;4904;49.152;11.004;2022-08-30T05:43:35;12.80;;;7.78;;
9729;SDS011;4904;49.152;11.004;2022-08-30T05:46:02;8.95;;;8.05;;
9729;SDS011;4904;49.152;11.004;2022-08-30T05:48:31;10.27;;;8.15;;
9729;SDS011;4904;49.152;11.004;2022-08-30T05:51:02;9.18;;;8.25;;
9729;SDS011;4904;49.152;11.004;2022-08-30T05:53:31;8.88;;;8.00;;
9729;SDS011;4904;49.152;11.004;2022-08-30T05:55:59;9.50;;;8.55;;
9729;SDS011;4904;49.152;11.004;2022-08-30T05:58:26;9.77;;;7.47;;
9729;SDS011;4904;49.152;11.004;2022-08-30T06:00:54;9.45;;;8.50;;
9729;SDS011;4904;49.152;11.004;2022-08-30T06:03:22;11.13;;;8.27;;
9729;SDS011;4904;49.152;11.004;2022-08-30T06:05:49;9.38;;;8.10;;
9729;SDS011;4904;49.152;11.004;2022-08-30T06:08:16;10.45;;;8.38;;
9729;SDS011;4904;49.152;11.004;2022-08-30T06:10:43;9.45;;;8.57;;
9729;SDS011;4904;49.152;11.004;2022-08-30T06:13:10;9.18;;;8.32;;
9729;SDS011;4904;49.152;11.004;2022-08-30T06:15:39;9.00;;;8.20;;
9729;SDS011;4904;49.152;11.004;2022-08-30T06:18:09;10.95;;;9.85;;
9729;SDS011;4904;49.152;11.004;2022-08-30T06:20:38;9.90;;;8.90;;
9729;SDS011;4904;49.152;11.004;2022-08-30T06:23:06;10.68;;;9.45;;
9729;SDS011;4904;49.152;11.004;2022-08-30T06:25:34;12.52;;;9.95;;
9729;SDS011;4904;49.152;11.004;2022-08-30T06:28:02;12.95;;;9.38;;
9729;SDS011;4904;49.152;11.004;2022-08-30T06:30:29;11.32;;;9.40;;
9729;SDS011;4904;49.152;11.004;2022-08-30T06:32:56;10.68;;;9.57;;
9729;SDS011;4904;49.152;11.004;2022-08-30T06:35:25;10.80;;;9.27;;
9729;SDS011;4904;49.152;11.004;2022-08-30T06:37:52;9.50;;;8.60;;
9729;SDS011;4904;49.152;11.004;2022-08-30T06:40:19;10.82;;;9.65;;
9729;SDS011;4904;49.152;11.004;2022-08-30T06:42:46;12.00;;;10.07;;
9729;SDS011;4904;49.152;11.004;2022-08-30T06:45:14;10.70;;;9.27;;
9729;SDS011;4904;49.152;11.004;2022-08-30T06:47:41;14.93;;;11.23;;
9729;SDS011;4904;49.152;11.004;2022-08-30T06:50:09;12.85;;;11.55;;
9729;SDS011;4904;49.152;11.004;2022-08-30T06:52:39;11.10;;;10.00;;
9729;SDS011;4904;49.152;11.004;2022-08-30T06:55:07;11.02;;;9.93;;
9729;SDS011;4904;49.152;11.004;2022-08-30T06:57:35;12.57;;;10.20;;
9729;SDS011;4904;49.152;11.004;2022-08-30T07:00:04;14.00;;;11.25;;
9729;SDS011;4904;49.152;11.004;2022-08-30T07:02:32;14.13;;;10.68;;
9729;SDS011;4904;49.152;11.004;2022-08-30T07:04:59;12.23;;;11.05;;
9729;SDS011;4904;49.152;11.004;2022-08-30T07:07:27;11.40;;;10.30;;
9729;SDS011;4904;49.152;11.004;2022-08-30T07:09:55;12.00;;;9.85;;
9729;SDS011;4904;49.152;11.004;2022-08-30T07:12:22;11.52;;;10.43;;
9729;SDS011;4904;49.152;11.004;2022-08-30T07:14:49;15.80;;;10.80;;
9729;SDS011;4904;49.152;11.004;2022-08-30T07:17:16;11.35;;;10.25;;
9729;SDS011;4904;49.152;11.004;2022-08-30T07:20:01;14.35;;;10.82;;
9729;SDS011;4904;49.152;11.004;2022-08-30T07:22:28;12.82;;;11.05;;
9729;SDS011;4904;49.152;11.004;2022-08-30T07:24:58;11.70;;;10.60;;
9729;SDS011;4904;49.152;11.004;2022-08-30T07:27:25;11.02;;;9.65;;
9729;SDS011;4904;49.152;11.004;2022-08-30T07:29:52;10.63;;;9.63;;
9729;SDS011;4904;49.152;11.004;2022-08-30T07:32:20;10.73;;;9.63;;
9729;SDS011;4904;49.152;11.004;2022-08-30T07:34:46;11.23;;;10.13;;
9729;SDS011;4904;49.152;11.004;2022-08-30T07:37:13;11.75;;;9.40;;
9729;SDS011;4904;49.152;11.004;2022-08-30T07:39:41;10.40;;;9.30;;
9729;SDS011;4904;49.152;11.004;2022-08-30T07:42:11;10.13;;;9.23;;
9729;SDS011;4904;49.152;11.004;2022-08-30T07:44:38;10.70;;;8.95;;
9729;SDS011;4904;49.152;11.004;2022-08-30T07:47:05;13.43;;;8.32;;
9729;SDS011;4904;49.152;11.004;2022-08-30T07:49:32;11.13;;;10.13;;
9729;SDS011;4904;49.152;11.004;2022-08-30T07:51:59;11.65;;;10.38;;
9729;SDS011;4904;49.152;11.004;2022-08-30T07:54:26;11.07;;;9.98;;
9729;SDS011;4904;49.152;11.004;2022-08-30T07:56:53;10.00;;;9.10;;
9729;SDS011;4904;49.152;11.004;2022-08-30T07:59:22;10.00;;;9.07;;
9729;SDS011;4904;49.152;11.004;2022-08-30T08:01:49;9.95;;;8.95;;
9729;SDS011;4904;49.152;11.004;2022-08-30T08:04:16;12.45;;;9.65;;
9729;SDS011;4904;49.152;11.004;2022-08-30T08:06:43;10.82;;;9.55;;
9729;SDS011;4904;49.152;11.004;2022-08-30T08:09:10;13.15;;;9.90;;
9729;SDS011;4904;49.152;11.004;2022-08-30T08:11:37;12.02;;;9.10;;
9729;SDS011;4904;49.152;11.004;2022-08-30T08:14:05;12.55;;;8.57;;
9729;SDS011;4904;49.152;11.004;2022-08-30T08:16:34;10.07;;;8.68;;
9729;SDS011;4904;49.152;11.004;2022-08-30T08:19:02;12.27;;;9.63;;
9729;SDS011;4904;49.152;11.004;2022-08-30T08:21:33;12.77;;;8.02;;
9729;SDS011;4904;49.152;11.004;2022-08-30T08:24:01;11.60;;;8.80;;
9729;SDS011;4904;49.152;11.004;2022-08-30T08:26:29;14.95;;;8.77;;
9729;SDS011;4904;49.152;11.004;2022-08-30T08:28:56;14.30;;;8.65;;
9729;SDS011;4904;49.152;11.004;2022-08-30T08:31:24;15.77;;;7.97;;
9729;SDS011;4904;49.152;11.004;2022-08-30T08:33:54;12.50;;;8.15;;
9729;SDS011;4904;49.152;11.004;2022-08-30T08:36:22;10.48;;;8.70;;
9729;SDS011;4904;49.152;11.004;2022-08-30T08:38:49;12.30;;;8.05;;
9729;SDS011;4904;49.152;11.004;2022-08-30T08:41:21;10.35;;;7.65;;
9729;SDS011;4904;49.152;11.004;2022-08-30T08:44:02;8.05;;;7.28;;
9729;SDS011;4904;49.152;11.004;2022-08-30T08:46:36;9.35;;;7.07;;
9729;SDS011;4904;49.152;11.004;2022-08-30T08:49:11;12.73;;;7.00;;
9729;SDS011;4904;49.152;11.004;2022-08-30T08:51:38;8.57;;;6.90;;
9729;SDS011;4904;49.152;11.004;2022-08-30T08:54:24;8.27;;;7.03;;
9729;SDS011;4904;49.152;11.004;2022-08-30T08:56:58;8.15;;;6.35;;
9729;SDS011;4904;49.152;11.004;2022-08-30T08:59:25;7.40;;;6.68;;
9729;SDS011;4904;49.152;11.004;2022-08-30T09:01:56;7.97;;;6.57;;
9729;SDS011;4904;49.152;11.004;2022-08-30T09:04:29;8.07;;;6.80;;
9729;SDS011;4904;49.152;11.004;2022-08-30T09:06:59;7.30;;;6.60;;
9729;SDS011;4904;49.152;11.004;2022-08-30T09:09:30;7.97;;;6.45;;
9729;SDS011;4904;49.152;11.004;2022-08-30T09:11:58;7.20;;;6.60;;
9729;SDS011;4904;49.152;11.004;2022-08-30T09:14:25;9.65;;;7.30;;
9729;SDS011;4904;49.152;11.004;2022-08-30T09:16:56;7.78;;;6.38;;
9729;SDS011;4904;49.152;11.004;2022-08-30T09:19:31;8.05;;;7.25;;
9729;SDS011;4904;49.152;11.004;2022-08-30T09:22:04;7.57;;;6.32;;
9729;SDS011;4904;49.152;11.004;2022-08-30T09:24:41;9.35;;;6.53;;
9729;SDS011;4904;49.152;11.004;2022-08-30T09:27:17;9.65;;;6.55;;
9729;SDS011;4904;49.152;11.004;2022-08-30T09:32:37;8.77;;;6.78;;
9729;SDS011;4904;49.152;11.004;2022-08-30T09:35:08;8.70;;;6.65;;
9729;SDS011;4904;49.152;11.004;2022-08-30T09:37:38;8.68;;;5.80;;
9729;SDS011;4904;49.152;11.004;2022-08-30T09:40:12;7.22;;;6.03;;
9729;SDS011;4904;49.152;11.004;2022-08-30T09:42:56;7.72;;;5.30;;
9729;SDS011;4904;49.152;11.004;2022-08-30T09:45:28;8.43;;;5.70;;
9729;SDS011;4904;49.152;11.004;2022-08-30T09:47:57;7.38;;;5.47;;
9729;SDS011;4904;49.152;11.004;2022-08-30T09:50:26;8.52;;;4.65;;
9729;SDS011;4904;49.152;11.004;2022-08-30T09:53:02;8.27;;;4.88;;
9729;SDS011;4904;49.152;11.004;2022-08-30T09:55:45;6.97;;;4.95;;
9729;SDS011;4904;49.152;11.004;2022-08-30T09:58:22;5.95;;;5.35;;
9729;SDS011;4904;49.152;11.004;2022-08-30T10:01:00;5.80;;;4.05;;
9729;SDS011;4904;49.152;11.004;2022-08-30T10:03:35;4.88;;;4.30;;
9729;SDS011;4904;49.152;11.004;2022-08-30T10:06:12;5.05;;;3.80;;
9729;SDS011;4904;49.152;11.004;2022-08-30T10:08:50;6.03;;;3.95;;
9729;SDS011;4904;49.152;11.004;2022-08-30T10:11:30;6.47;;;3.80;;
9729;SDS011;4904;49.152;11.004;2022-08-30T10:16:59;6.20;;;3.83;;
9729;SDS011;4904;49.152;11.004;2022-08-30T10:19:37;5.50;;;4.25;;
9729;SDS011;4904;49.152;11.004;2022-08-30T10:22:15;5.28;;;3.90;;
9729;SDS011;4904;49.152;11.004;2022-08-30T10:24:49;5.00;;;3.75;;
9729;SDS011;4904;49.152;11.004;2022-08-30T10:27:19;5.07;;;3.92;;
9729;SDS011;4904;49.152;11.004;2022-08-30T10:29:52;4.20;;;3.75;;
9729;SDS011;4904;49.152;11.004;2022-08-30T10:32:24;3.92;;;3.53;;
9729;SDS011;4904;49.152;11.004;2022-08-30T10:34:56;5.07;;;3.80;;
9729;SDS011;4904;49.152;11.004;2022-08-30T10:37:31;4.63;;;3.80;;
9729;SDS011;4904;49.152;11.004;2022-08-30T10:40:03;5.30;;;3.55;;
9729;SDS011;4904;49.152;11.004;2022-08-30T10:42:49;4.05;;;3.30;;
9729;SDS011;4904;49.152;11.004;2022-08-30T10:45:18;3.90;;;3.50;;
9729;SDS011;4904;49.152;11.004;2022-08-30T10:47:48;6.43;;;3.55;;
9729;SDS011;4904;49.152;11.004;2022-08-30T10:50:21;4.50;;;3.90;;
9729;SDS011;4904;49.152;11.004;2022-08-30T10:52:55;4.03;;;3.25;;
9729;SDS011;4904;49.152;11.004;2022-08-30T10:55:25;4.15;;;3.67;;
9729;SDS011;4904;49.152;11.004;2022-08-30T10:57:57;4.20;;;3.38;;
9729;SDS011;4904;49.152;11.004;2022-08-30T11:00:25;3.55;;;3.25;;
9729;SDS011;4904;49.152;11.004;2022-08-30T11:06:05;3.28;;;2.97;;
9729;SDS011;4904;49.152;11.004;2022-08-30T11:08:43;3.75;;;3.17;;
9729;SDS011;4904;49.152;11.004;2022-08-30T11:11:25;5.10;;;3.15;;
9729;SDS011;4904;49.152;11.004;2022-08-30T11:14:01;3.58;;;3.28;;
9729;SDS011;4904;49.152;11.004;2022-08-30T11:16:34;4.00;;;3.60;;
9729;SDS011;4904;49.152;11.004;2022-08-30T11:19:03;5.22;;;3.55;;
9729;SDS011;4904;49.152;11.004;2022-08-30T11:21:41;3.42;;;3.15;;
9729;SDS011;4904;49.152;11.004;2022-08-30T11:24:11;4.55;;;3.10;;
9729;SDS011;4904;49.152;11.004;2022-08-30T11:26:54;3.35;;;3.15;;
9729;SDS011;4904;49.152;11.004;2022-08-30T11:29:27;3.78;;;3.40;;
9729;SDS011;4904;49.152;11.004;2022-08-30T11:34:53;3.63;;;3.33;;
9729;SDS011;4904;49.152;11.004;2022-08-30T11:37:30;5.53;;;3.30;;
9729;SDS011;4904;49.152;11.004;2022-08-30T11:40:03;4.40;;;3.30;;
9729;SDS011;4904;49.152;11.004;2022-08-30T11:42:41;5.25;;;3.85;;
9729;SDS011;4904;49.152;11.004;2022-08-30T11:54:12;5.45;;;3.08;;
9729;SDS011;4904;49.152;11.004;2022-08-30T11:56:51;5.00;;;2.97;;
9729;SDS011;4904;49.152;11.004;2022-08-30T11:59:27;3.95;;;3.00;;
9729;SDS011;4904;49.152;11.004;2022-08-30T12:02:03;3.63;;;3.33;;
9729;SDS011;4904;49.152;11.004;2022-08-30T12:04:35;3.38;;;3.05;;
9729;SDS011;4904;49.152;11.004;2022-08-30T12:07:09;3.20;;;2.90;;
9729;SDS011;4904;49.152;11.004;2022-08-30T12:12:51;3.53;;;3.22;;
9729;SDS011;4904;49.152;11.004;2022-08-30T12:18:19;3.35;;;3.05;;
9729;SDS011;4904;49.152;11.004;2022-08-30T12:21:08;4.13;;;3.22;;
9729;SDS011;4904;49.152;11.004;2022-08-30T12:23:47;3.22;;;2.97;;
9729;SDS011;4904;49.152;11.004;2022-08-30T12:26:19;3.65;;;3.00;;
9729;SDS011;4904;49.152;11.004;2022-08-30T12:31:50;3.53;;;3.22;;
9729;SDS011;4904;49.152;11.004;2022-08-30T12:34:21;3.38;;;3.08;;
9729;SDS011;4904;49.152;11.004;2022-08-30T12:36:55;4.53;;;3.20;;
9729;SDS011;4904;49.152;11.004;2022-08-30T12:39:28;3.53;;;3.22;;
9729;SDS011;4904;49.152;11.004;2022-08-30T12:42:04;3.30;;;3.00;;
9729;SDS011;4904;49.152;11.004;2022-08-30T12:44:39;3.35;;;3.05;;
9729;SDS011;4904;49.152;11.004;2022-08-30T12:47:06;3.38;;;3.08;;
9729;SDS011;4904;49.152;11.004;2022-08-30T12:49:36;3.38;;;3.08;;
9729;SDS011;4904;49.152;11.004;2022-08-30T12:52:16;3.80;;;3.28;;
9729;SDS011;4904;49.152;11.004;2022-08-30T12:54:47;5.70;;;3.28;;
9729;SDS011;4904;49.152;11.004;2022-08-30T12:57:18;3.28;;;2.95;;
9729;SDS011;4904;49.152;11.004;2022-08-30T13:00:03;3.53;;;3.22;;
9729;SDS011;4904;49.152;11.004;2022-08-30T13:02:43;3.33;;;3.03;;
9729;SDS011;4904;49.152;11.004;2022-08-30T13:05:28;3.45;;;3.17;;
9729;SDS011;4904;49.152;11.004;2022-08-30T13:08:08;3.72;;;3.00;;
9729;SDS011;4904;49.152;11.004;2022-08-30T13:10:45;5.03;;;2.88;;
9729;SDS011;4904;49.152;11.004;2022-08-30T13:13:25;3.47;;;3.13;;
9729;SDS011;4904;49.152;11.004;2022-08-30T13:15:55;3.58;;;3.28;;
9729;SDS011;4904;49.152;11.004;2022-08-30T13:18:31;4.95;;;3.55;;
9729;SDS011;4904;49.152;11.004;2022-08-30T13:21:11;3.95;;;3.03;;
9729;SDS011;4904;49.152;11.004;2022-08-30T13:23:53;4.68;;;3.22;;
9729;SDS011;4904;49.152;11.004;2022-08-30T13:26:22;4.60;;;3.38;;
9729;SDS011;4904;49.152;11.004;2022-08-30T13:28:49;3.25;;;3.05;;
9729;SDS011;4904;49.152;11.004;2022-08-30T13:31:19;7.28;;;3.50;;
9729;SDS011;4904;49.152;11.004;2022-08-30T13:33:46;4.65;;;3.28;;
9729;SDS011;4904;49.152;11.004;2022-08-30T13:36:17;3.40;;;3.08;;
9729;SDS011;4904;49.152;11.004;2022-08-30T13:38:45;4.78;;;3.25;;
9729;SDS011;4904;49.152;11.004;2022-08-30T13:41:13;4.32;;;3.33;;
9729;SDS011;4904;49.152;11.004;2022-08-30T13:43:40;4.28;;;3.30;;
9729;SDS011;4904;49.152;11.004;2022-08-30T13:46:07;5.78;;;3.22;;
9729;SDS011;4904;49.152;11.004;2022-08-30T13:48:38;4.00;;;3.10;;
9729;SDS011;4904;49.152;11.004;2022-08-30T13:51:05;3.38;;;2.88;;
9729;SDS011;4904;49.152;11.004;2022-08-30T13:53:33;3.78;;;3.08;;
9729;SDS011;4904;49.152;11.004;2022-08-30T13:56:00;3.78;;;3.22;;
9729;SDS011;4904;49.152;11.004;2022-08-30T13:58:29;3.50;;;3.20;;
9729;SDS011;4904;49.152;11.004;2022-08-30T14:00:56;3.58;;;3.28;;
9729;SDS011;4904;49.152;11.004;2022-08-30T14:03:24;5.60;;;3.05;;
9729;SDS011;4904;49.152;11.004;2022-08-30T14:05:52;3.70;;;3.03;;
9729;SDS011;4904;49.152;11.004;2022-08-30T14:08:21;3.10;;;2.80;;
9729;SDS011;4904;49.152;11.004;2022-08-30T14:10:51;3.08;;;2.75;;
9729;SDS011;4904;49.152;11.004;2022-08-30T14:13:18;4.20;;;3.10;;
9729;SDS011;4904;49.152;11.004;2022-08-30T14:15:45;3.22;;;3.00;;
9729;SDS011;4904;49.152;11.004;2022-08-30T14:18:13;4.00;;;3.05;;
9729;SDS011;4904;49.152;11.004;2022-08-30T14:20:40;4.47;;;3.33;;
9729;SDS011;4904;49.152;11.004;2022-08-30T14:23:08;6.43;;;3.28;;
9729;SDS011;4904;49.152;11.004;2022-08-30T14:25:35;3.25;;;2.95;;
9729;SDS011;4904;49.152;11.004;2022-08-30T14:28:02;7.15;;;2.97;;
9729;SDS011;4904;49.152;11.004;2022-08-30T14:30:30;4.97;;;3.00;;
9729;SDS011;4904;49.152;11.004;2022-08-30T14:32:57;3.90;;;3.28;;
9729;SDS011;4904;49.152;11.004;2022-08-30T14:35:24;3.47;;;3.13;;
9729;SDS011;4904;49.152;11.004;2022-08-30T14:37:50;3.55;;;3.25;;
9729;SDS011;4904;49.152;11.004;2022-08-30T14:40:19;3.33;;;3.03;;
9729;SDS011;4904;49.152;11.004;2022-08-30T14:42:46;3.58;;;3.00;;
9729;SDS011;4904;49.152;11.004;2022-08-30T14:45:13;4.55;;;3.30;;
9729;SDS011;4904;49.152;11.004;2022-08-30T14:47:40;3.47;;;2.92;;
9729;SDS011;4904;49.152;11.004;2022-08-30T14:50:07;3.70;;;2.97;;
9729;SDS011;4904;49.152;11.004;2022-08-30T14:52:34;4.30;;;3.53;;
9729;SDS011;4904;49.152;11.004;2022-08-30T14:55:02;3.75;;;3.40;;
9729;SDS011;4904;49.152;11.004;2022-08-30T14:57:33;3.42;;;3.10;;
9729;SDS011;4904;49.152;11.004;2022-08-30T15:00:00;3.30;;;3.00;;
9729;SDS011;4904;49.152;11.004;2022-08-30T15:02:28;3.72;;;3.25;;
9729;SDS011;4904;49.152;11.004;2022-08-30T15:04:54;3.80;;;3.50;;
9729;SDS011;4904;49.152;11.004;2022-08-30T15:07:21;3.40;;;3.10;;
9729;SDS011;4904;49.152;11.004;2022-08-30T15:09:48;3.80;;;3.00;;
9729;SDS011;4904;49.152;11.004;2022-08-30T15:12:16;4.43;;;3.28;;
9729;SDS011;4904;49.152;11.004;2022-08-30T15:14:44;5.85;;;3.30;;
9729;SDS011;4904;49.152;11.004;2022-08-30T15:17:11;3.50;;;3.20;;
9729;SDS011;4904;49.152;11.004;2022-08-30T15:19:38;4.05;;;3.03;;
9729;SDS011;4904;49.152;11.004;2022-08-30T15:22:05;4.07;;;3.30;;
9729;SDS011;4904;49.152;11.004;2022-08-30T15:24:33;4.95;;;3.33;;
9729;SDS011;4904;49.152;11.004;2022-08-30T15:27:00;6.10;;;3.22;;
9729;SDS011;4904;49.152;11.004;2022-08-30T15:29:28;4.68;;;3.40;;
9729;SDS011;4904;49.152;11.004;2022-08-30T15:31:57;5.72;;;3.28;;
9729;SDS011;4904;49.152;11.004;2022-08-30T15:34:28;5.47;;;3.30;;
9729;SDS011;4904;49.152;11.004;2022-08-30T15:36:56;4.03;;;3.00;;
9729;SDS011;4904;49.152;11.004;2022-08-30T15:39:23;4.10;;;3.33;;
9729;SDS011;4904;49.152;11.004;2022-08-30T15:41:50;4.15;;;3.55;;